Wakayoshi Maru No.3 — JD3947 — position and weather

sailwx.info

Track history (hours):
 
Tides and Currents Weather Stations Pressure Air Temp Water Temp Dewpoint Dewpoint Depression Visibility Wind Speed Wind Dir Waves Ship Positions

Wakayoshi Maru No.3

Last reported at 2018-Jan-23 23:20 UTC. Time now 2018-Jan-23 23:51 UTC.
Position N 35°29' E 139°55'.

Length 64 m; draft 5.4 m.

Type: Tanker. MMSI: 431007002.

Date/timePositionNaut miles runAvg speedWind from/ knotsBaromVisibWave heightAir tempDewpointWater temp
2018-Jan-23 23:20N 35°29' E 139°55'0 0.0
2018-Jan-23 22:20N 35°29' E 139°55'0 0.0
2018-Jan-23 21:56N 35°29' E 139°55'0 0.0
2018-Jan-23 21:26N 35°29' E 139°55'0 0.0
2018-Jan-23 20:50N 35°29' E 139°55'0 0.0
2018-Jan-23 20:29N 35°29' E 139°55'0 0.0
2018-Jan-23 19:59N 35°29' E 139°55'0 0.0
2018-Jan-23 19:29N 35°29' E 139°55'0 0.0
2018-Jan-23 18:56N 35°29' E 139°55'0 0.0
2018-Jan-23 18:29N 35°29' E 139°55'0 0.0
2018-Jan-23 17:56N 35°29' E 139°55'0 0.0
2018-Jan-23 17:26N 35°29' E 139°55'0 0.0
2018-Jan-23 16:50N 35°29' E 139°55'0 0.0
2018-Jan-23 16:23N 35°29' E 139°55'0 0.0
2018-Jan-23 15:41N 35°29' E 139°55'0 0.0
2018-Jan-23 15:20N 35°29' E 139°55'0 0.0
2018-Jan-23 14:56N 35°29' E 139°55'0 0.0
2018-Jan-23 14:29N 35°29' E 139°55'0 0.0
2018-Jan-23 13:59N 35°29' E 139°55'0 0.0
2018-Jan-23 13:20N 35°29' E 139°55'0 0.0
2018-Jan-23 12:59N 35°29' E 139°55'0 0.0
2018-Jan-23 12:20N 35°29' E 139°55'0 0.0
2018-Jan-23 11:47N 35°29' E 139°55'0 0.0
2018-Jan-23 11:29N 35°29' E 139°55'0 0.0
2018-Jan-23 10:59N 35°29' E 139°55'0 0.0
2018-Jan-23 10:26N 35°29' E 139°55'0 0.0
2018-Jan-23 09:47N 35°29' E 139°55'0 0.0
2018-Jan-23 09:20N 35°29' E 139°55'0 0.0
2018-Jan-23 08:59N 35°29' E 139°55'0 0.0
2018-Jan-23 08:30N 35°29' E 139°55'0 0.0
2018-Jan-23 08:00N 35°29' E 139°55'0 0.0
2018-Jan-23 07:30N 35°29' E 139°55'0 0.0
2018-Jan-23 06:59N 35°29' E 139°55'0 0.0
2018-Jan-23 06:30N 35°29' E 139°55'0 0.0
2018-Jan-23 06:00N 35°29' E 139°55'0 0.0
2018-Jan-23 05:30N 35°29' E 139°55'0 0.0
2018-Jan-23 04:59N 35°29' E 139°55'0 0.0
2018-Jan-23 04:30N 35°29' E 139°55'0 0.0
2018-Jan-23 04:01N 35°29' E 139°55'0 0.7
2018-Jan-23 03:30N 35°29' E 139°54'5 9.2
2018-Jan-23 03:00N 35°30' E 139°49'2 4.3
2018-Jan-23 02:29N 35°30' E 139°46'0 0.0
2018-Jan-23 01:08N 35°30' E 139°46'0 0.0
2018-Jan-23 00:50N 35°30' E 139°46'0 0.0
2018-Jan-23 00:28N 35°30' E 139°46'0 0.6
2018-Jan-23 00:01N 35°30' E 139°46'510.6
2018-Jan-22 23:30N 35°30' E 139°53'2 4.2
2018-Jan-22 22:59N 35°28' E 139°55'0 0.0
2018-Jan-22 22:30N 35°28' E 139°55'0 0.0
2018-Jan-22 22:00N 35°28' E 139°55'0 0.1
2018-Jan-22 21:30N 35°28' E 139°55'0 0.1
2018-Jan-22 21:00N 35°28' E 139°55'0 0.0
2018-Jan-22 20:30N 35°28' E 139°55'0 0.0
2018-Jan-22 20:00N 35°28' E 139°55'0 0.0
2018-Jan-22 19:30N 35°28' E 139°55'0 0.0
2018-Jan-22 19:00N 35°28' E 139°55'0 0.0
2018-Jan-22 18:30N 35°28' E 139°55'0 0.0
2018-Jan-22 18:00N 35°28' E 139°55'0 0.0
2018-Jan-22 17:30N 35°28' E 139°55'0 0.0
2018-Jan-22 17:00N 35°28' E 139°55'0 0.0
2018-Jan-22 16:30N 35°28' E 139°55'0 0.0
2018-Jan-22 16:00N 35°28' E 139°55'0 0.0
2018-Jan-22 15:30N 35°28' E 139°55'0 0.0
2018-Jan-22 15:00N 35°28' E 139°55'0 0.0
2018-Jan-22 14:30N 35°28' E 139°55'0 0.0
2018-Jan-22 14:00N 35°28' E 139°55'0 0.0
2018-Jan-22 13:30N 35°28' E 139°55'0 0.0
2018-Jan-22 13:00N 35°28' E 139°55'0 0.0
2018-Jan-22 12:30N 35°28' E 139°55'0 0.0
2018-Jan-22 12:00N 35°28' E 139°55'0 0.0
2018-Jan-22 11:29N 35°28' E 139°55'0 0.0
2018-Jan-22 11:00N 35°28' E 139°55'0 0.0
2018-Jan-22 10:30N 35°28' E 139°55'0 0.0
2018-Jan-22 10:00N 35°28' E 139°55'0 0.0
2018-Jan-22 09:30N 35°28' E 139°55'0 0.0
2018-Jan-22 09:00N 35°28' E 139°55'0 0.0
2018-Jan-22 08:30N 35°28' E 139°55'0 0.1
2018-Jan-22 08:00N 35°28' E 139°55'0 0.0
2018-Jan-22 07:30N 35°28' E 139°55'0 0.0
2018-Jan-22 07:00N 35°28' E 139°55'0 0.0
2018-Jan-22 06:30N 35°28' E 139°55'0 0.0
2018-Jan-22 06:00N 35°28' E 139°55'0 0.0
2018-Jan-22 05:30N 35°28' E 139°55'0 0.0
2018-Jan-22 05:00N 35°28' E 139°55'1 1.9
2018-Jan-22 04:30N 35°29' E 139°56'510.2
2018-Jan-22 04:00N 35°31' E 140°02'1 0.4
2018-Jan-22 02:07N 35°31' E 140°03'0 0.0
2018-Jan-22 01:49N 35°31' E 140°03'0 0.0
2018-Jan-22 01:13N 35°31' E 140°03'0 0.0
2018-Jan-22 00:52N 35°31' E 140°03'0 0.0
2018-Jan-22 00:31N 35°31' E 140°03'0 0.0
2018-Jan-21 23:55N 35°31' E 140°03'0 0.1
2018-Jan-21 23:25N 35°31' E 140°03'3 5.8
2018-Jan-21 22:58N 35°31' E 139°59'5 9.8
2018-Jan-21 22:30N 35°29' E 139°54'0 0.3
2018-Jan-21 21:58N 35°29' E 139°54'0 0.0
2018-Jan-21 21:28N 35°29' E 139°54'0 0.1
2018-Jan-21 20:52N 35°29' E 139°54'0 0.0
2018-Jan-21 20:19N 35°29' E 139°54'0 0.1
2018-Jan-21 19:55N 35°29' E 139°54'0 0.1
2018-Jan-21 19:25N 35°29' E 139°54'0 0.0
2018-Jan-21 18:58N 35°29' E 139°54'0 0.0
2018-Jan-21 18:28N 35°29' E 139°54'0 0.0
2018-Jan-21 17:58N 35°29' E 139°54'0 0.0
2018-Jan-21 17:25N 35°29' E 139°54'0 0.1
2018-Jan-21 16:58N 35°29' E 139°54'0 0.0
2018-Jan-21 16:28N 35°29' E 139°54'0 0.0
2018-Jan-21 15:58N 35°29' E 139°54'0 0.0
2018-Jan-21 15:28N 35°29' E 139°54'0 0.0
2018-Jan-21 14:58N 35°29' E 139°54'0 0.1
2018-Jan-21 14:10N 35°29' E 139°54'0 0.0
2018-Jan-21 13:58N 35°29' E 139°54'0 0.0
2018-Jan-21 13:28N 35°29' E 139°54'0 0.0
2018-Jan-21 12:58N 35°29' E 139°54'0 0.0
2018-Jan-21 12:28N 35°29' E 139°54'0 0.1
2018-Jan-21 11:43N 35°29' E 139°54'0 0.0
2018-Jan-21 11:28N 35°29' E 139°54'0 0.0
2018-Jan-21 10:58N 35°29' E 139°54'0 0.0
2018-Jan-21 10:28N 35°29' E 139°54'0 0.0
2018-Jan-21 09:46N 35°29' E 139°54'0 0.0
2018-Jan-21 09:30N 35°29' E 139°54'4 8.8
2018-Jan-21 09:00N 35°27' E 139°49'612.6
2018-Jan-21 08:31N 35°22' E 139°45'611.9
2018-Jan-21 08:01N 35°16' E 139°47'612.7
2018-Jan-21 07:30N 35°09' E 139°46'612.8
2018-Jan-21 07:00N 35°04' E 139°42'612.7
2018-Jan-21 06:29N 34°59' E 139°37'713.7
2018-Jan-21 05:59N 34°56' E 139°29'714.7
2018-Jan-21 05:31N 34°52' E 139°22'814.9
2018-Jan-21 04:58N 34°47' E 139°15'814.6
2018-Jan-21 04:25N 34°42' E 139°06'614.3
2018-Jan-21 04:00N 34°38' E 139°01'713.6
2018-Jan-21 03:30N 34°35' E 138°54'711.6
2018-Jan-21 02:52N 34°37' E 138°45'512.0
2018-Jan-21 02:30N 34°41' E 138°42'612.5
2018-Jan-21 02:00N 34°47' E 138°42'612.6
2018-Jan-21 01:31N 34°53' E 138°42'613.0
2018-Jan-21 01:01N 34°60' E 138°42'712.9
2018-Jan-21 00:30N 35°06' E 138°42'2 4.2
2018-Jan-21 00:00N 35°08' E 138°42'0 0.0
2018-Jan-20 23:28N 35°08' E 138°42'0 0.0
2018-Jan-20 23:00N 35°08' E 138°42'0 0.0
2018-Jan-20 22:31N 35°08' E 138°42'0 0.0
2018-Jan-20 22:01N 35°08' E 138°42'1 1.2
2018-Jan-20 21:31N 35°08' E 138°42'3 5.7
2018-Jan-20 21:00N 35°06' E 138°40'510.0
2018-Jan-20 20:30N 35°04' E 138°34'2 3.9
2018-Jan-20 20:00N 35°03' E 138°32'0 0.0
2018-Jan-20 19:31N 35°03' E 138°32'0 0.0
2018-Jan-20 19:00N 35°03' E 138°32'0 0.0
2018-Jan-20 18:30N 35°03' E 138°32'0 0.0
2018-Jan-20 18:01N 35°03' E 138°32'0 0.1
2018-Jan-20 17:30N 35°03' E 138°32'0 0.0
2018-Jan-20 16:59N 35°03' E 138°32'1 1.5
2018-Jan-20 16:31N 35°02' E 138°33'510.5
2018-Jan-20 16:01N 34°58' E 138°36'611.9
2018-Jan-20 15:30N 34°52' E 138°38'612.2
2018-Jan-20 15:00N 34°46' E 138°41'611.5
2018-Jan-20 14:28N 34°41' E 138°43'7 9.3
2018-Jan-20 13:43N 34°35' E 138°48'2 9.2
2018-Jan-20 13:27N 34°35' E 138°51'4 8.9
2018-Jan-20 12:58N 34°36' E 138°57'5 9.9
2018-Jan-20 12:28N 34°39' E 139°01'510.7
2018-Jan-20 12:00N 34°42' E 139°06'510.5
2018-Jan-20 11:30N 34°46' E 139°11'710.3
2018-Jan-20 10:52N 34°50' E 139°17'510.9
2018-Jan-20 10:25N 34°53' E 139°21'510.6
2018-Jan-20 09:58N 34°56' E 139°26'511.3
2018-Jan-20 09:30N 34°60' E 139°30'611.8
2018-Jan-20 09:00N 35°03' E 139°36'612.0
2018-Jan-20 08:30N 35°07' E 139°42'612.0
2018-Jan-20 08:00N 35°12' E 139°46'510.7
2018-Jan-20 07:30N 35°17' E 139°45'510.9
2018-Jan-20 07:01N 35°22' E 139°42'510.8
2018-Jan-20 06:30N 35°27' E 139°46'611.6
2018-Jan-20 05:59N 35°30' E 139°53'611.7
2018-Jan-20 05:30N 35°31' E 139°60'2 0.7
2018-Jan-20 02:53N 35°30' E 140°02'0 0.1
2018-Jan-20 02:13N 35°30' E 140°02'1 5.6
2018-Jan-20 02:00N 35°30' E 140°01'2 2.1
2018-Jan-20 01:09N 35°31' E 139°59'0 0.0
2018-Jan-20 01:00N 35°31' E 139°59'0 0.0
2018-Jan-20 00:30N 35°31' E 139°59'0 0.0
2018-Jan-19 23:51N 35°31' E 139°59'0 0.0
2018-Jan-19 23:21N 35°31' E 139°59'0 0.0
2018-Jan-19 22:53N 35°31' E 139°59'1 1.5
2018-Jan-19 22:30N 35°31' E 139°58'611.4
2018-Jan-19 21:58N 35°30' E 139°51'2 4.3
2018-Jan-19 21:28N 35°29' E 139°49'0 0.0
2018-Jan-19 20:55N 35°29' E 139°49'0 0.0
2018-Jan-19 20:30N 35°29' E 139°49'0 0.0
2018-Jan-19 20:00N 35°29' E 139°49'0 0.1
2018-Jan-19 19:30N 35°29' E 139°49'0 0.0
2018-Jan-19 19:00N 35°29' E 139°49'5 9.0
2018-Jan-19 18:31N 35°25' E 139°47'612.3
2018-Jan-19 18:00N 35°19' E 139°44'612.0
2018-Jan-19 17:31N 35°13' E 139°47'611.9
2018-Jan-19 17:00N 35°08' E 139°45'611.6
2018-Jan-19 16:30N 35°02' E 139°42'611.6
2018-Jan-19 16:00N 34°59' E 139°36'712.1
2018-Jan-19 15:25N 34°56' E 139°29'512.4
2018-Jan-19 15:00N 34°53' E 139°23'612.4
2018-Jan-19 14:30N 34°49' E 139°17'612.4
2018-Jan-19 13:59N 34°46' E 139°11'612.4
2018-Jan-19 13:30N 34°42' E 139°05'611.5
2018-Jan-19 13:00N 34°38' E 139°00'511.2
2018-Jan-19 12:30N 34°35' E 138°54'611.3
2018-Jan-19 11:59N 34°35' E 138°47'711.2
2018-Jan-19 11:21N 34°34' E 138°39'411.3
2018-Jan-19 10:59N 34°34' E 138°34'611.3
2018-Jan-19 10:29N 34°34' E 138°27'611.4
2018-Jan-19 09:56N 34°34' E 138°19'511.3
2018-Jan-19 09:30N 34°34' E 138°13'610.8
2018-Jan-19 08:56N 34°34' E 138°06'511.1
2018-Jan-19 08:30N 34°34' E 137°60'3012.2
2018-Jan-19 06:00N 34°33' E 137°23'712.8
2018-Jan-19 05:29N 34°32' E 137°15'1012.6
2018-Jan-19 04:44N 34°32' E 137°03'812.5
2018-Jan-19 04:04N 34°36' E 136°54'113.2
2018-Jan-19 04:00N 34°36' E 136°53'613.1
2018-Jan-19 03:30N 34°37' E 136°45'612.9
2018-Jan-19 03:00N 34°38' E 136°38'4 7.3
2018-Jan-19 02:30N 34°37' E 136°33'0 0.0
2018-Jan-19 02:00N 34°37' E 136°33'0 0.0
2018-Jan-19 01:30N 34°37' E 136°33'0 0.0
2018-Jan-19 01:00N 34°37' E 136°33'0 0.0
2018-Jan-19 00:30N 34°37' E 136°33'0 0.0
2018-Jan-19 00:00N 34°37' E 136°33'0 0.0
2018-Jan-18 23:30N 34°37' E 136°33'0 0.4
2018-Jan-18 22:59N 34°37' E 136°34'1 2.4
2018-Jan-18 22:29N 34°38' E 136°34'4 7.8
2018-Jan-18 22:00N 34°39' E 136°39'6 9.5
2018-Jan-18 21:23N 34°39' E 136°46'3 8.7
2018-Jan-18 21:00N 34°37' E 136°49'17 9.7
2018-Jan-18 19:15N 34°34' E 137°10'310.4
2018-Jan-18 18:58N 34°34' E 137°13'5110.0
2018-Jan-18 13:52N 34°34' E 138°15'4 9.0
2018-Jan-18 13:23N 34°34' E 138°20'5 9.0
2018-Jan-18 12:49N 34°34' E 138°26'5 9.0
2018-Jan-18 12:15N 34°34' E 138°33'3 8.2
2018-Jan-18 11:51N 34°34' E 138°36'4 8.4
2018-Jan-18 11:19N 34°35' E 138°42'3 7.6
2018-Jan-18 10:58N 34°35' E 138°45'4 7.7
2018-Jan-18 10:30N 34°35' E 138°49'4 7.2
2018-Jan-18 10:00N 34°35' E 138°54'5 8.3
2018-Jan-18 09:25N 34°38' E 138°59'4 9.5
2018-Jan-18 09:00N 34°40' E 139°02'7 9.4
2018-Jan-18 08:18N 34°45' E 139°09'310.6
2018-Jan-18 08:00N 34°47' E 139°11'811.1
2018-Jan-18 07:19N 34°53' E 139°17'410.7
2018-Jan-18 06:56N 34°55' E 139°21'610.0
2018-Jan-18 06:19N 34°59' E 139°27'410.1
2018-Jan-18 05:57N 35°02' E 139°30'510.1
2018-Jan-18 05:30N 35°04' E 139°35'510.6
2018-Jan-18 05:00N 35°06' E 139°41'511.0
2018-Jan-18 04:30N 35°11' E 139°45'510.5
2018-Jan-18 04:00N 35°16' E 139°46'611.4
2018-Jan-18 03:30N 35°21' E 139°42'510.6
2018-Jan-18 03:00N 35°26' E 139°45'510.6
2018-Jan-18 02:31N 35°29' E 139°50'4 8.0
2018-Jan-18 02:00N 35°29' E 139°55'0 0.2
2018-Jan-18 01:30N 35°29' E 139°55'0 0.0
2018-Jan-18 00:59N 35°29' E 139°55'0 0.0
2018-Jan-18 00:00N 35°29' E 139°55'0 0.0
2018-Jan-17 23:57N 35°29' E 139°55'  
Track history (hours):
 
Tides and Currents Weather Stations Pressure Air Temp Water Temp Dewpoint Dewpoint Depression Visibility Wind Speed Wind Dir Waves Ship Positions

Wakayoshi Maru No.3

Last reported at 2018-Jan-23 23:20 UTC. Time now 2018-Jan-23 23:51 UTC.
Position N 35°29' E 139°55'.

Length 64 m; draft 5.4 m.

Type: Tanker. MMSI: 431007002.

Date/timePositionNaut miles runAvg speedWind from/ knotsBaromVisibWave heightAir tempDewpointWater temp
2018-Jan-23 23:20N 35°29' E 139°55'0 0.0
2018-Jan-23 22:20N 35°29' E 139°55'0 0.0
2018-Jan-23 21:56N 35°29' E 139°55'0 0.0
2018-Jan-23 21:26N 35°29' E 139°55'0 0.0
2018-Jan-23 20:50N 35°29' E 139°55'0 0.0
2018-Jan-23 20:29N 35°29' E 139°55'0 0.0
2018-Jan-23 19:59N 35°29' E 139°55'0 0.0
2018-Jan-23 19:29N 35°29' E 139°55'0 0.0
2018-Jan-23 18:56N 35°29' E 139°55'0 0.0
2018-Jan-23 18:29N 35°29' E 139°55'0 0.0
2018-Jan-23 17:56N 35°29' E 139°55'0 0.0
2018-Jan-23 17:26N 35°29' E 139°55'0 0.0
2018-Jan-23 16:50N 35°29' E 139°55'0 0.0
2018-Jan-23 16:23N 35°29' E 139°55'0 0.0
2018-Jan-23 15:41N 35°29' E 139°55'0 0.0
2018-Jan-23 15:20N 35°29' E 139°55'0 0.0
2018-Jan-23 14:56N 35°29' E 139°55'0 0.0
2018-Jan-23 14:29N 35°29' E 139°55'0 0.0
2018-Jan-23 13:59N 35°29' E 139°55'0 0.0
2018-Jan-23 13:20N 35°29' E 139°55'0 0.0
2018-Jan-23 12:59N 35°29' E 139°55'0 0.0
2018-Jan-23 12:20N 35°29' E 139°55'0 0.0
2018-Jan-23 11:47N 35°29' E 139°55'0 0.0
2018-Jan-23 11:29N 35°29' E 139°55'0 0.0
2018-Jan-23 10:59N 35°29' E 139°55'0 0.0
2018-Jan-23 10:26N 35°29' E 139°55'0 0.0
2018-Jan-23 09:47N 35°29' E 139°55'0 0.0
2018-Jan-23 09:20N 35°29' E 139°55'0 0.0
2018-Jan-23 08:59N 35°29' E 139°55'0 0.0
2018-Jan-23 08:30N 35°29' E 139°55'0 0.0
2018-Jan-23 08:00N 35°29' E 139°55'0 0.0
2018-Jan-23 07:30N 35°29' E 139°55'0 0.0
2018-Jan-23 06:59N 35°29' E 139°55'0 0.0
2018-Jan-23 06:30N 35°29' E 139°55'0 0.0
2018-Jan-23 06:00N 35°29' E 139°55'0 0.0
2018-Jan-23 05:30N 35°29' E 139°55'0 0.0
2018-Jan-23 04:59N 35°29' E 139°55'0 0.0
2018-Jan-23 04:30N 35°29' E 139°55'0 0.0
2018-Jan-23 04:01N 35°29' E 139°55'0 0.7
2018-Jan-23 03:30N 35°29' E 139°54'5 9.2
2018-Jan-23 03:00N 35°30' E 139°49'2 4.3
2018-Jan-23 02:29N 35°30' E 139°46'0 0.0
2018-Jan-23 01:08N 35°30' E 139°46'0 0.0
2018-Jan-23 00:50N 35°30' E 139°46'0 0.0
2018-Jan-23 00:28N 35°30' E 139°46'0 0.6
2018-Jan-23 00:01N 35°30' E 139°46'510.6
2018-Jan-22 23:30N 35°30' E 139°53'2 4.2
2018-Jan-22 22:59N 35°28' E 139°55'0 0.0
2018-Jan-22 22:30N 35°28' E 139°55'0 0.0
2018-Jan-22 22:00N 35°28' E 139°55'0 0.1
2018-Jan-22 21:30N 35°28' E 139°55'0 0.1
2018-Jan-22 21:00N 35°28' E 139°55'0 0.0
2018-Jan-22 20:30N 35°28' E 139°55'0 0.0
2018-Jan-22 20:00N 35°28' E 139°55'0 0.0
2018-Jan-22 19:30N 35°28' E 139°55'0 0.0
2018-Jan-22 19:00N 35°28' E 139°55'0 0.0
2018-Jan-22 18:30N 35°28' E 139°55'0 0.0
2018-Jan-22 18:00N 35°28' E 139°55'0 0.0
2018-Jan-22 17:30N 35°28' E 139°55'0 0.0
2018-Jan-22 17:00N 35°28' E 139°55'0 0.0
2018-Jan-22 16:30N 35°28' E 139°55'0 0.0
2018-Jan-22 16:00N 35°28' E 139°55'0 0.0
2018-Jan-22 15:30N 35°28' E 139°55'0 0.0
2018-Jan-22 15:00N 35°28' E 139°55'0 0.0
2018-Jan-22 14:30N 35°28' E 139°55'0 0.0
2018-Jan-22 14:00N 35°28' E 139°55'0 0.0
2018-Jan-22 13:30N 35°28' E 139°55'0 0.0
2018-Jan-22 13:00N 35°28' E 139°55'0 0.0
2018-Jan-22 12:30N 35°28' E 139°55'0 0.0
2018-Jan-22 12:00N 35°28' E 139°55'0 0.0
2018-Jan-22 11:29N 35°28' E 139°55'0 0.0
2018-Jan-22 11:00N 35°28' E 139°55'0 0.0
2018-Jan-22 10:30N 35°28' E 139°55'0 0.0
2018-Jan-22 10:00N 35°28' E 139°55'0 0.0
2018-Jan-22 09:30N 35°28' E 139°55'0 0.0
2018-Jan-22 09:00N 35°28' E 139°55'0 0.0
2018-Jan-22 08:30N 35°28' E 139°55'0 0.1
2018-Jan-22 08:00N 35°28' E 139°55'0 0.0
2018-Jan-22 07:30N 35°28' E 139°55'0 0.0
2018-Jan-22 07:00N 35°28' E 139°55'0 0.0
2018-Jan-22 06:30N 35°28' E 139°55'0 0.0
2018-Jan-22 06:00N 35°28' E 139°55'0 0.0
2018-Jan-22 05:30N 35°28' E 139°55'0 0.0
2018-Jan-22 05:00N 35°28' E 139°55'1 1.9
2018-Jan-22 04:30N 35°29' E 139°56'510.2
2018-Jan-22 04:00N 35°31' E 140°02'1 0.4
2018-Jan-22 02:07N 35°31' E 140°03'0 0.0
2018-Jan-22 01:49N 35°31' E 140°03'0 0.0
2018-Jan-22 01:13N 35°31' E 140°03'0 0.0
2018-Jan-22 00:52N 35°31' E 140°03'0 0.0
2018-Jan-22 00:31N 35°31' E 140°03'0 0.0
2018-Jan-21 23:55N 35°31' E 140°03'0 0.1
2018-Jan-21 23:25N 35°31' E 140°03'3 5.8
2018-Jan-21 22:58N 35°31' E 139°59'5 9.8
2018-Jan-21 22:30N 35°29' E 139°54'0 0.3
2018-Jan-21 21:58N 35°29' E 139°54'0 0.0
2018-Jan-21 21:28N 35°29' E 139°54'0 0.1
2018-Jan-21 20:52N 35°29' E 139°54'0 0.0
2018-Jan-21 20:19N 35°29' E 139°54'0 0.1
2018-Jan-21 19:55N 35°29' E 139°54'0 0.1
2018-Jan-21 19:25N 35°29' E 139°54'0 0.0
2018-Jan-21 18:58N 35°29' E 139°54'0 0.0
2018-Jan-21 18:28N 35°29' E 139°54'0 0.0
2018-Jan-21 17:58N 35°29' E 139°54'0 0.0
2018-Jan-21 17:25N 35°29' E 139°54'0 0.1
2018-Jan-21 16:58N 35°29' E 139°54'0 0.0
2018-Jan-21 16:28N 35°29' E 139°54'0 0.0
2018-Jan-21 15:58N 35°29' E 139°54'0 0.0
2018-Jan-21 15:28N 35°29' E 139°54'0 0.0
2018-Jan-21 14:58N 35°29' E 139°54'0 0.1
2018-Jan-21 14:10N 35°29' E 139°54'0 0.0
2018-Jan-21 13:58N 35°29' E 139°54'0 0.0
2018-Jan-21 13:28N 35°29' E 139°54'0 0.0
2018-Jan-21 12:58N 35°29' E 139°54'0 0.0
2018-Jan-21 12:28N 35°29' E 139°54'0 0.1
2018-Jan-21 11:43N 35°29' E 139°54'0 0.0
2018-Jan-21 11:28N 35°29' E 139°54'0 0.0
2018-Jan-21 10:58N 35°29' E 139°54'0 0.0
2018-Jan-21 10:28N 35°29' E 139°54'0 0.0
2018-Jan-21 09:46N 35°29' E 139°54'0 0.0
2018-Jan-21 09:30N 35°29' E 139°54'4 8.8
2018-Jan-21 09:00N 35°27' E 139°49'612.6
2018-Jan-21 08:31N 35°22' E 139°45'611.9
2018-Jan-21 08:01N 35°16' E 139°47'612.7
2018-Jan-21 07:30N 35°09' E 139°46'612.8
2018-Jan-21 07:00N 35°04' E 139°42'612.7
2018-Jan-21 06:29N 34°59' E 139°37'713.7
2018-Jan-21 05:59N 34°56' E 139°29'714.7
2018-Jan-21 05:31N 34°52' E 139°22'814.9
2018-Jan-21 04:58N 34°47' E 139°15'814.6
2018-Jan-21 04:25N 34°42' E 139°06'614.3
2018-Jan-21 04:00N 34°38' E 139°01'713.6
2018-Jan-21 03:30N 34°35' E 138°54'711.6
2018-Jan-21 02:52N 34°37' E 138°45'512.0
2018-Jan-21 02:30N 34°41' E 138°42'612.5
2018-Jan-21 02:00N 34°47' E 138°42'612.6
2018-Jan-21 01:31N 34°53' E 138°42'613.0
2018-Jan-21 01:01N 34°60' E 138°42'712.9
2018-Jan-21 00:30N 35°06' E 138°42'2 4.2
2018-Jan-21 00:00N 35°08' E 138°42'0 0.0
2018-Jan-20 23:28N 35°08' E 138°42'0 0.0
2018-Jan-20 23:00N 35°08' E 138°42'0 0.0
2018-Jan-20 22:31N 35°08' E 138°42'0 0.0
2018-Jan-20 22:01N 35°08' E 138°42'1 1.2
2018-Jan-20 21:31N 35°08' E 138°42'3 5.7
2018-Jan-20 21:00N 35°06' E 138°40'510.0
2018-Jan-20 20:30N 35°04' E 138°34'2 3.9
2018-Jan-20 20:00N 35°03' E 138°32'0 0.0
2018-Jan-20 19:31N 35°03' E 138°32'0 0.0
2018-Jan-20 19:00N 35°03' E 138°32'0 0.0
2018-Jan-20 18:30N 35°03' E 138°32'0 0.0
2018-Jan-20 18:01N 35°03' E 138°32'0 0.1
2018-Jan-20 17:30N 35°03' E 138°32'0 0.0
2018-Jan-20 16:59N 35°03' E 138°32'1 1.5
2018-Jan-20 16:31N 35°02' E 138°33'510.5
2018-Jan-20 16:01N 34°58' E 138°36'611.9
2018-Jan-20 15:30N 34°52' E 138°38'612.2
2018-Jan-20 15:00N 34°46' E 138°41'611.5
2018-Jan-20 14:28N 34°41' E 138°43'7 9.3
2018-Jan-20 13:43N 34°35' E 138°48'2 9.2
2018-Jan-20 13:27N 34°35' E 138°51'4 8.9
2018-Jan-20 12:58N 34°36' E 138°57'5 9.9
2018-Jan-20 12:28N 34°39' E 139°01'510.7
2018-Jan-20 12:00N 34°42' E 139°06'510.5
2018-Jan-20 11:30N 34°46' E 139°11'710.3
2018-Jan-20 10:52N 34°50' E 139°17'510.9
2018-Jan-20 10:25N 34°53' E 139°21'510.6
2018-Jan-20 09:58N 34°56' E 139°26'511.3
2018-Jan-20 09:30N 34°60' E 139°30'611.8
2018-Jan-20 09:00N 35°03' E 139°36'612.0
2018-Jan-20 08:30N 35°07' E 139°42'612.0
2018-Jan-20 08:00N 35°12' E 139°46'510.7
2018-Jan-20 07:30N 35°17' E 139°45'510.9
2018-Jan-20 07:01N 35°22' E 139°42'510.8
2018-Jan-20 06:30N 35°27' E 139°46'611.6
2018-Jan-20 05:59N 35°30' E 139°53'611.7
2018-Jan-20 05:30N 35°31' E 139°60'2 0.7
2018-Jan-20 02:53N 35°30' E 140°02'0 0.1
2018-Jan-20 02:13N 35°30' E 140°02'1 5.6
2018-Jan-20 02:00N 35°30' E 140°01'2 2.1
2018-Jan-20 01:09N 35°31' E 139°59'0 0.0
2018-Jan-20 01:00N 35°31' E 139°59'0 0.0
2018-Jan-20 00:30N 35°31' E 139°59'0 0.0
2018-Jan-19 23:51N 35°31' E 139°59'0 0.0
2018-Jan-19 23:21N 35°31' E 139°59'0 0.0
2018-Jan-19 22:53N 35°31' E 139°59'1 1.5
2018-Jan-19 22:30N 35°31' E 139°58'611.4
2018-Jan-19 21:58N 35°30' E 139°51'2 4.3
2018-Jan-19 21:28N 35°29' E 139°49'0 0.0
2018-Jan-19 20:55N 35°29' E 139°49'0 0.0
2018-Jan-19 20:30N 35°29' E 139°49'0 0.0
2018-Jan-19 20:00N 35°29' E 139°49'0 0.1
2018-Jan-19 19:30N 35°29' E 139°49'0 0.0
2018-Jan-19 19:00N 35°29' E 139°49'5 9.0
2018-Jan-19 18:31N 35°25' E 139°47'612.3
2018-Jan-19 18:00N 35°19' E 139°44'612.0
2018-Jan-19 17:31N 35°13' E 139°47'611.9
2018-Jan-19 17:00N 35°08' E 139°45'611.6
2018-Jan-19 16:30N 35°02' E 139°42'611.6
2018-Jan-19 16:00N 34°59' E 139°36'712.1
2018-Jan-19 15:25N 34°56' E 139°29'512.4
2018-Jan-19 15:00N 34°53' E 139°23'612.4
2018-Jan-19 14:30N 34°49' E 139°17'612.4
2018-Jan-19 13:59N 34°46' E 139°11'612.4
2018-Jan-19 13:30N 34°42' E 139°05'611.5
2018-Jan-19 13:00N 34°38' E 139°00'511.2
2018-Jan-19 12:30N 34°35' E 138°54'611.3
2018-Jan-19 11:59N 34°35' E 138°47'711.2
2018-Jan-19 11:21N 34°34' E 138°39'411.3
2018-Jan-19 10:59N 34°34' E 138°34'611.3
2018-Jan-19 10:29N 34°34' E 138°27'611.4
2018-Jan-19 09:56N 34°34' E 138°19'511.3
2018-Jan-19 09:30N 34°34' E 138°13'610.8
2018-Jan-19 08:56N 34°34' E 138°06'511.1
2018-Jan-19 08:30N 34°34' E 137°60'3012.2
2018-Jan-19 06:00N 34°33' E 137°23'712.8
2018-Jan-19 05:29N 34°32' E 137°15'1012.6
2018-Jan-19 04:44N 34°32' E 137°03'812.5
2018-Jan-19 04:04N 34°36' E 136°54'113.2
2018-Jan-19 04:00N 34°36' E 136°53'613.1
2018-Jan-19 03:30N 34°37' E 136°45'612.9
2018-Jan-19 03:00N 34°38' E 136°38'4 7.3
2018-Jan-19 02:30N 34°37' E 136°33'0 0.0
2018-Jan-19 02:00N 34°37' E 136°33'0 0.0
2018-Jan-19 01:30N 34°37' E 136°33'0 0.0
2018-Jan-19 01:00N 34°37' E 136°33'0 0.0
2018-Jan-19 00:30N 34°37' E 136°33'0 0.0
2018-Jan-19 00:00N 34°37' E 136°33'0 0.0
2018-Jan-18 23:30N 34°37' E 136°33'0 0.4
2018-Jan-18 22:59N 34°37' E 136°34'1 2.4
2018-Jan-18 22:29N 34°38' E 136°34'4 7.8
2018-Jan-18 22:00N 34°39' E 136°39'6 9.5
2018-Jan-18 21:23N 34°39' E 136°46'3 8.7
2018-Jan-18 21:00N 34°37' E 136°49'17 9.7
2018-Jan-18 19:15N 34°34' E 137°10'310.4
2018-Jan-18 18:58N 34°34' E 137°13'5110.0
2018-Jan-18 13:52N 34°34' E 138°15'4 9.0
2018-Jan-18 13:23N 34°34' E 138°20'5 9.0
2018-Jan-18 12:49N 34°34' E 138°26'5 9.0
2018-Jan-18 12:15N 34°34' E 138°33'3 8.2
2018-Jan-18 11:51N 34°34' E 138°36'4 8.4
2018-Jan-18 11:19N 34°35' E 138°42'3 7.6
2018-Jan-18 10:58N 34°35' E 138°45'4 7.7
2018-Jan-18 10:30N 34°35' E 138°49'4 7.2
2018-Jan-18 10:00N 34°35' E 138°54'5 8.3
2018-Jan-18 09:25N 34°38' E 138°59'4 9.5
2018-Jan-18 09:00N 34°40' E 139°02'7 9.4
2018-Jan-18 08:18N 34°45' E 139°09'310.6
2018-Jan-18 08:00N 34°47' E 139°11'811.1
2018-Jan-18 07:19N 34°53' E 139°17'410.7
2018-Jan-18 06:56N 34°55' E 139°21'610.0
2018-Jan-18 06:19N 34°59' E 139°27'410.1
2018-Jan-18 05:57N 35°02' E 139°30'510.1
2018-Jan-18 05:30N 35°04' E 139°35'510.6
2018-Jan-18 05:00N 35°06' E 139°41'511.0
2018-Jan-18 04:30N 35°11' E 139°45'510.5
2018-Jan-18 04:00N 35°16' E 139°46'611.4
2018-Jan-18 03:30N 35°21' E 139°42'510.6
2018-Jan-18 03:00N 35°26' E 139°45'510.6
2018-Jan-18 02:31N 35°29' E 139°50'4 8.0
2018-Jan-18 02:00N 35°29' E 139°55'0 0.2
2018-Jan-18 01:30N 35°29' E 139°55'0 0.0
2018-Jan-18 00:59N 35°29' E 139°55'0 0.0
2018-Jan-18 00:00N 35°29' E 139°55'0 0.0
2018-Jan-17 23:57N 35°29' E 139°55'  

Dump ship's entire track history